createdAt,value
2022-08-27T00:02:00.849Z,98058.66
2022-08-27T00:04:27.411Z,98054.63
2022-08-27T00:06:53.971Z,98064.63
2022-08-27T00:09:26.580Z,98056.13
2022-08-27T00:11:53.575Z,98061.25
2022-08-27T00:14:19.964Z,98057.13
2022-08-27T00:16:46.346Z,98065.91
2022-08-27T00:19:12.768Z,98056.31
2022-08-27T00:21:39.130Z,98061.31
2022-08-27T00:24:05.531Z,98066.91
2022-08-27T00:26:32.436Z,98059.88
2022-08-27T00:28:58.842Z,98077.63
2022-08-27T00:31:27.349Z,98072.44
2022-08-27T00:33:54.082Z,98073.09
2022-08-27T00:36:20.571Z,98079.34
2022-08-27T00:38:46.927Z,98076.78
2022-08-27T00:41:13.986Z,98073.91
2022-08-27T00:43:50.642Z,98074.53
2022-08-27T00:46:23.082Z,98075.28
2022-08-27T00:48:51.116Z,98067.53
2022-08-27T00:51:17.475Z,98067.69
2022-08-27T00:53:44.071Z,98070.91
2022-08-27T00:56:12.060Z,98063.50
2022-08-27T00:58:40.188Z,98058.81
2022-08-27T01:01:07.926Z,98063.00
2022-08-27T01:03:34.866Z,98063.00
2022-08-27T01:06:02.326Z,98070.50
2022-08-27T01:08:30.949Z,98069.38
2022-08-27T01:10:58.413Z,98063.88
2022-08-27T01:13:44.166Z,98067.59
2022-08-27T01:16:12.278Z,98076.31
2022-08-27T01:18:39.549Z,98075.66
2022-08-27T01:21:14.228Z,98075.44
2022-08-27T01:23:48.447Z,98071.38
2022-08-27T01:26:15.870Z,98072.47
2022-08-27T01:28:42.867Z,98076.59
2022-08-27T01:31:10.709Z,98068.63
2022-08-27T01:33:37.535Z,98066.13
2022-08-27T01:36:04.473Z,98069.03
2022-08-27T01:38:31.612Z,98069.25
2022-08-27T01:40:59.068Z,98063.81
2022-08-27T01:43:27.345Z,98057.59
2022-08-27T01:45:53.682Z,98069.44
2022-08-27T01:48:20.980Z,98070.16
2022-08-27T01:50:48.220Z,98067.69
2022-08-27T01:53:16.657Z,98059.22
2022-08-27T01:55:47.700Z,98062.91
2022-08-27T01:58:15.556Z,98057.09
2022-08-27T02:00:42.835Z,98053.47
2022-08-27T02:03:09.974Z,98044.59
2022-08-27T02:05:39.500Z,98052.31
2022-08-27T02:08:11.914Z,98038.88
2022-08-27T02:10:39.545Z,98042.56
2022-08-27T02:13:07.050Z,98045.56
2022-08-27T02:15:34.753Z,98044.88
2022-08-27T02:18:01.207Z,98047.31
2022-08-27T02:20:27.947Z,98051.69
2022-08-27T02:22:55.838Z,98045.13
2022-08-27T02:25:22.194Z,98043.56
2022-08-27T02:27:49.165Z,98044.16
2022-08-27T02:30:18.668Z,98041.34
2022-08-27T02:32:47.176Z,98039.66
2022-08-27T02:35:14.593Z,98032.72
2022-08-27T02:37:41.784Z,98036.41
2022-08-27T02:40:09.249Z,98032.19
2022-08-27T02:42:35.631Z,98038.44
2022-08-27T02:45:01.979Z,98028.78
2022-08-27T02:47:28.324Z,98030.94
2022-08-27T02:49:54.714Z,98032.19
2022-08-27T02:52:25.016Z,98030.06
2022-08-27T02:54:51.608Z,98028.19
2022-08-27T02:57:18.081Z,98027.56
2022-08-27T02:59:45.161Z,98026.09
2022-08-27T03:02:11.596Z,98028.31
2022-08-27T03:04:38.336Z,98027.94
2022-08-27T03:07:04.673Z,98029.94
2022-08-27T03:09:31.026Z,98029.94
2022-08-27T03:11:57.575Z,98023.41
2022-08-27T03:14:23.937Z,98022.59
2022-08-27T03:16:50.321Z,98016.34
2022-08-27T03:19:21.522Z,98027.03
2022-08-27T03:21:52.119Z,98029.34
2022-08-27T03:24:21.063Z,98033.09
2022-08-27T03:26:52.779Z,98034.56
2022-08-27T03:29:20.353Z,98033.38
2022-08-27T03:31:46.837Z,98032.31
2022-08-27T03:34:13.439Z,98048.31
2022-08-27T03:36:39.744Z,98051.03
2022-08-27T03:39:06.535Z,98049.22
2022-08-27T03:41:47.246Z,98047.38
2022-08-27T03:44:21.266Z,98046.91
2022-08-27T03:46:48.757Z,98050.56
2022-08-27T03:49:15.243Z,98048.22
2022-08-27T03:51:47.071Z,98047.81
2022-08-27T03:54:13.436Z,98057.69
2022-08-27T03:56:41.512Z,98054.03
2022-08-27T03:59:07.829Z,98057.16
2022-08-27T04:01:34.434Z,98056.94
2022-08-27T04:04:00.819Z,98059.94
2022-08-27T04:06:28.189Z,98051.03
2022-08-27T04:08:54.530Z,98051.06
2022-08-27T04:11:22.080Z,98047.00
2022-08-27T04:13:48.455Z,98055.38
2022-08-27T04:16:14.854Z,98050.41
2022-08-27T04:18:41.275Z,98049.53
2022-08-27T04:21:08.867Z,98050.88
2022-08-27T04:23:35.194Z,98053.44
2022-08-27T04:26:05.125Z,98055.56
2022-08-27T04:28:35.208Z,98055.50
2022-08-27T04:31:05.096Z,98062.50
2022-08-27T04:33:32.449Z,98064.94
2022-08-27T04:36:02.569Z,98061.75
2022-08-27T04:38:29.110Z,98072.59
2022-08-27T04:41:14.184Z,98061.00
2022-08-27T04:43:40.551Z,98064.09
2022-08-27T04:46:07.219Z,98062.66
2022-08-27T04:48:33.560Z,98058.97
2022-08-27T04:51:00.321Z,98059.25
2022-08-27T04:53:26.785Z,98057.00
2022-08-27T04:55:54.451Z,98057.97
2022-08-27T04:58:21.444Z,98050.59
2022-08-27T05:00:49.551Z,98054.63
2022-08-27T05:03:16.845Z,98056.09
2022-08-27T05:05:43.820Z,98051.44
2022-08-27T05:08:13.050Z,98055.88
2022-08-27T05:10:43.425Z,98053.28
2022-08-27T05:13:09.993Z,98053.19
2022-08-27T05:15:37.123Z,98052.72
2022-08-27T05:18:03.812Z,98043.88
2022-08-27T05:20:30.952Z,98045.25
2022-08-27T05:22:57.316Z,98047.50
2022-08-27T05:25:24.227Z,98039.53
2022-08-27T05:27:50.555Z,98034.78
2022-08-27T05:30:16.948Z,98040.03
2022-08-27T05:32:43.375Z,98034.06
2022-08-27T05:35:13.939Z,98037.31
2022-08-27T05:37:42.839Z,98036.47
2022-08-27T05:40:09.601Z,98038.59
2022-08-27T05:42:35.996Z,98036.63
2022-08-27T05:45:02.346Z,98029.56
2022-08-27T05:47:29.275Z,98040.94
2022-08-27T05:49:55.636Z,98039.22
2022-08-27T05:52:21.969Z,98048.50
2022-08-27T05:54:48.349Z,98048.06
2022-08-27T05:57:14.703Z,98043.59
2022-08-27T05:59:59.772Z,98057.53
2022-08-27T06:02:26.134Z,98052.28
2022-08-27T06:04:53.502Z,98056.41
2022-08-27T06:07:20.016Z,98063.44
2022-08-27T06:09:46.413Z,98066.06
2022-08-27T06:12:12.721Z,98067.03
2022-08-27T06:14:39.100Z,98066.63
2022-08-27T06:17:06.400Z,98059.56
2022-08-27T06:19:34.750Z,98060.19
2022-08-27T06:22:09.834Z,98062.75
2022-08-27T06:24:38.987Z,98062.75
2022-08-27T06:27:05.571Z,98067.13
2022-08-27T06:29:33.420Z,98064.78
2022-08-27T06:31:59.763Z,98066.16
2022-08-27T06:34:26.193Z,98070.94
2022-08-27T06:36:53.569Z,98068.34
2022-08-27T06:39:19.950Z,98070.75
2022-08-27T06:41:49.571Z,98066.94
2022-08-27T06:44:15.884Z,98077.91
2022-08-27T06:46:42.886Z,98064.94
2022-08-27T06:49:09.935Z,98066.28
2022-08-27T06:51:38.164Z,98068.16
2022-08-27T06:54:06.625Z,98069.59
2022-08-27T06:56:33.317Z,98072.25
2022-08-27T06:59:01.594Z,98073.63
2022-08-27T07:01:30.451Z,98074.59
2022-08-27T07:03:58.421Z,98071.78
2022-08-27T07:06:29.293Z,98074.75
2022-08-27T07:08:56.985Z,98076.31
2022-08-27T07:11:23.669Z,98078.88
2022-08-27T07:13:50.105Z,98078.16
2022-08-27T07:16:17.794Z,98082.50
2022-08-27T07:18:44.746Z,98080.25
2022-08-27T07:21:12.162Z,98081.50
2022-08-27T07:23:39.817Z,98083.00
2022-08-27T07:26:08.135Z,98092.69
2022-08-27T07:28:34.440Z,98083.09
2022-08-27T07:31:00.963Z,98079.78
2022-08-27T07:33:27.385Z,98078.34
2022-08-27T07:35:53.823Z,98077.59
2022-08-27T07:38:20.143Z,98068.91
2022-08-27T07:40:46.812Z,98074.84
2022-08-27T07:43:31.750Z,98088.16
2022-08-27T07:46:00.942Z,98092.22
2022-08-27T07:48:27.933Z,98091.97
2022-08-27T07:50:54.335Z,98094.94
2022-08-27T07:53:21.355Z,98092.75
2022-08-27T07:55:47.748Z,98100.84
2022-08-27T07:58:18.440Z,98100.84
2022-08-27T08:00:45.246Z,98109.69
2022-08-27T08:03:12.283Z,98103.31
2022-08-27T08:05:43.163Z,98096.06
2022-08-27T08:08:09.815Z,98094.06
2022-08-27T08:10:37.194Z,98098.88
2022-08-27T08:13:03.891Z,98106.97
2022-08-27T08:15:30.238Z,98113.56
2022-08-27T08:17:56.555Z,98116.06
2022-08-27T08:20:36.009Z,98121.63
2022-08-27T08:23:09.776Z,98127.91
2022-08-27T08:25:38.741Z,98124.94
2022-08-27T08:28:05.222Z,98122.94
2022-08-27T08:30:34.444Z,98124.28
2022-08-27T08:33:01.872Z,98117.03
2022-08-27T08:35:28.220Z,98125.09
2022-08-27T08:38:01.480Z,98128.84
2022-08-27T08:40:33.792Z,98126.63
2022-08-27T08:43:00.529Z,98123.94
2022-08-27T08:45:29.594Z,98122.50
2022-08-27T08:48:04.982Z,98126.22
2022-08-27T08:50:36.262Z,98116.63
2022-08-27T08:53:07.259Z,98119.06
2022-08-27T08:55:39.465Z,98120.63
2022-08-27T08:58:26.082Z,98116.59
2022-08-27T09:01:00.410Z,98129.41
2022-08-27T09:03:27.703Z,98134.25
2022-08-27T09:06:01.672Z,98133.19
2022-08-27T09:08:41.915Z,98142.81
2022-08-27T09:11:14.506Z,98138.78
2022-08-27T09:13:43.302Z,98142.00
2022-08-27T09:16:10.129Z,98133.53
2022-08-27T09:18:37.527Z,98135.72
2022-08-27T09:21:10.635Z,98130.16
2022-08-27T09:23:40.356Z,98134.63
2022-08-27T09:26:16.973Z,98135.47
2022-08-27T09:29:02.178Z,98137.22
2022-08-27T09:31:29.768Z,98132.50
2022-08-27T09:33:57.214Z,98132.06
2022-08-27T09:36:24.122Z,98143.84
2022-08-27T09:38:58.099Z,98138.69
2022-08-27T09:41:26.638Z,98142.81
2022-08-27T09:44:00.410Z,98140.53
2022-08-27T09:46:27.422Z,98144.88
2022-08-27T09:48:53.951Z,98136.84
2022-08-27T09:51:22.771Z,98142.09
2022-08-27T09:53:53.864Z,98146.59
2022-08-27T09:56:23.269Z,98138.13
2022-08-27T09:59:01.677Z,98151.88
2022-08-27T10:01:29.719Z,98147.06
2022-08-27T10:04:10.006Z,98141.91
2022-08-27T10:06:37.966Z,98142.94
2022-08-27T10:09:14.791Z,98142.19
2022-08-27T10:11:44.740Z,98142.13
2022-08-27T10:14:16.215Z,98139.16
2022-08-27T10:17:11.199Z,98149.94
2022-08-27T10:19:46.640Z,98139.97
2022-08-27T10:22:15.985Z,98138.59
2022-08-27T10:24:54.058Z,98131.97
2022-08-27T10:27:27.224Z,98132.34
2022-08-27T10:30:00.892Z,98135.34
2022-08-27T10:32:44.035Z,98137.88
2022-08-27T10:35:21.788Z,98142.19
2022-08-27T10:37:55.578Z,98141.06
2022-08-27T10:40:27.313Z,98152.94
2022-08-27T10:43:00.700Z,98152.50
2022-08-27T10:45:36.136Z,98145.13
2022-08-27T10:48:06.573Z,98149.94
2022-08-27T10:50:48.966Z,98159.22
2022-08-27T10:53:53.963Z,98167.22
2022-08-27T10:56:30.345Z,98157.84
2022-08-27T10:58:56.640Z,98167.97
2022-08-27T11:01:30.235Z,98164.22
2022-08-27T11:04:00.936Z,98167.44
2022-08-27T11:06:39.252Z,98164.63
2022-08-27T11:09:08.386Z,98165.75
2022-08-27T11:14:45.318Z,98154.25
2022-08-27T11:17:18.210Z,98166.31
2022-08-27T11:19:50.049Z,98166.41
2022-08-27T11:22:26.174Z,98166.72
2022-08-27T11:25:22.098Z,98168.50
2022-08-27T11:27:51.227Z,98166.13
2022-08-27T11:30:28.908Z,98165.50
2022-08-27T11:32:58.105Z,98167.22
2022-08-27T11:35:34.786Z,98165.91
2022-08-27T11:38:12.599Z,98160.03
2022-08-27T11:40:49.159Z,98162.13
2022-08-27T11:43:20.975Z,98159.22
2022-08-27T11:46:03.553Z,98163.25
2022-08-27T11:48:31.593Z,98164.69
2022-08-27T11:51:01.422Z,98156.88
2022-08-27T11:53:33.431Z,98168.88
2022-08-27T11:56:10.201Z,98164.84
2022-08-27T11:58:53.484Z,98157.06
2022-08-27T12:01:26.894Z,98154.94
2022-08-27T12:04:06.245Z,98156.63
2022-08-27T12:06:43.663Z,98159.94
2022-08-27T12:09:15.798Z,98155.81
2022-08-27T12:11:48.700Z,98148.66
2022-08-27T12:14:33.776Z,98148.22
2022-08-27T12:17:12.329Z,98147.03
2022-08-27T12:19:45.368Z,98157.63
2022-08-27T12:22:30.190Z,98141.56
2022-08-27T12:24:58.024Z,98134.22
2022-08-27T12:27:24.538Z,98135.31
2022-08-27T12:29:53.916Z,98140.03
2022-08-27T12:32:20.303Z,98145.66
2022-08-27T12:35:08.548Z,98138.06
2022-08-27T12:37:36.765Z,98140.88
2022-08-27T12:40:15.755Z,98141.13
2022-08-27T12:42:46.318Z,98147.16
2022-08-27T12:45:24.470Z,98145.13
2022-08-27T12:47:51.546Z,98141.06
2022-08-27T12:50:36.231Z,98144.72
2022-08-27T12:53:12.616Z,98146.81
2022-08-27T12:55:44.801Z,98150.88
2022-08-27T12:58:15.639Z,98143.94
2022-08-27T13:01:01.062Z,98142.16
2022-08-27T13:03:32.567Z,98144.84
2022-08-27T13:06:01.497Z,98140.47
2022-08-27T13:08:31.699Z,98135.72
2022-08-27T13:11:08.220Z,98137.50
2022-08-27T13:13:39.798Z,98138.31
2022-08-27T13:16:06.315Z,98140.59
2022-08-27T13:18:32.929Z,98134.69
2022-08-27T13:21:04.772Z,98135.31
2022-08-27T13:23:31.284Z,98136.31
2022-08-27T13:26:07.952Z,98133.97
2022-08-27T13:28:35.549Z,98126.41
2022-08-27T13:31:02.884Z,98126.91
2022-08-27T13:33:35.431Z,98131.06
2022-08-27T13:36:03.724Z,98133.22
2022-08-27T13:38:35.000Z,98131.97
2022-08-27T13:41:18.099Z,98132.25
2022-08-27T13:43:45.378Z,98129.09
2022-08-27T13:46:13.534Z,98135.31
2022-08-27T13:48:41.296Z,98130.06
2022-08-27T13:51:09.137Z,98127.47
2022-08-27T13:53:54.791Z,98130.06
2022-08-27T13:56:28.773Z,98126.28
2022-08-27T13:58:55.448Z,98130.41
2022-08-27T14:01:26.536Z,98133.00
2022-08-27T14:03:57.974Z,98134.56
2022-08-27T14:06:25.560Z,98132.38
2022-08-27T14:08:59.034Z,98132.56
2022-08-27T14:11:27.322Z,98131.75
2022-08-27T14:13:55.755Z,98132.84
2022-08-27T14:16:22.165Z,98138.75
2022-08-27T14:18:59.395Z,98144.50
2022-08-27T14:21:26.108Z,98141.72
2022-08-27T14:23:52.412Z,98142.75
2022-08-27T14:26:18.872Z,98137.88
2022-08-27T14:28:45.423Z,98145.16
2022-08-27T14:31:13.312Z,98146.13
2022-08-27T14:33:39.941Z,98143.72
2022-08-27T14:36:07.046Z,98146.84
2022-08-27T14:38:34.602Z,98149.69
2022-08-27T14:41:00.906Z,98142.81
2022-08-27T14:43:27.231Z,98138.09
2022-08-27T14:45:53.887Z,98134.59
2022-08-27T14:48:21.824Z,98135.09
2022-08-27T14:50:55.299Z,98136.63
2022-08-27T14:53:21.649Z,98132.53
2022-08-27T14:55:52.052Z,98139.16
2022-08-27T14:58:18.720Z,98137.88
2022-08-27T15:00:45.104Z,98127.44
2022-08-27T15:03:11.623Z,98133.00
2022-08-27T15:05:37.998Z,98136.72
2022-08-27T15:08:04.453Z,98136.72
2022-08-27T15:10:31.317Z,98142.59
2022-08-27T15:12:58.065Z,98139.50
2022-08-27T15:15:24.463Z,98140.38
2022-08-27T15:17:50.852Z,98139.50
2022-08-27T15:20:20.045Z,98142.72
2022-08-27T15:22:47.939Z,98139.72
2022-08-27T15:25:15.197Z,98138.66
2022-08-27T15:27:41.937Z,98143.13
2022-08-27T15:30:10.634Z,98140.13
2022-08-27T15:32:39.508Z,98133.91
2022-08-27T15:35:08.332Z,98133.38
2022-08-27T15:37:35.659Z,98137.59
2022-08-27T15:40:02.280Z,98133.47
2022-08-27T15:42:32.927Z,98131.22
2022-08-27T15:44:59.372Z,98129.94
2022-08-27T15:47:25.693Z,98127.34
2022-08-27T15:49:52.047Z,98135.91
2022-08-27T15:52:20.451Z,98128.88
2022-08-27T15:54:48.935Z,98133.28
2022-08-27T15:57:15.846Z,98126.16
2022-08-27T15:59:42.195Z,98127.03
2022-08-27T16:02:14.792Z,98126.88
2022-08-27T16:04:41.257Z,98128.34
2022-08-27T16:07:07.612Z,98122.66
2022-08-27T16:09:33.929Z,98119.03
2022-08-27T16:12:00.955Z,98127.53
2022-08-27T16:14:27.291Z,98120.81
2022-08-27T16:16:53.670Z,98117.19
2022-08-27T16:19:20.594Z,98119.47
2022-08-27T16:21:47.298Z,98119.88
2022-08-27T16:24:13.667Z,98116.88
2022-08-27T16:26:40.053Z,98116.78
2022-08-27T16:29:06.833Z,98124.84
2022-08-27T16:31:34.925Z,98118.94
2022-08-27T16:34:02.256Z,98120.41
2022-08-27T16:36:30.487Z,98117.41
2022-08-27T16:38:56.962Z,98118.78
2022-08-27T16:41:23.351Z,98123.94
2022-08-27T16:43:49.973Z,98115.06
2022-08-27T16:46:16.527Z,98116.91
2022-08-27T16:49:01.832Z,98114.44
2022-08-27T16:51:34.453Z,98122.78
2022-08-27T16:54:04.934Z,98123.19
2022-08-27T16:56:36.388Z,98129.16
2022-08-27T16:59:04.392Z,98121.41
2022-08-27T17:01:31.676Z,98126.56
2022-08-27T17:04:08.799Z,98118.81
2022-08-27T17:06:39.600Z,98127.31
2022-08-27T17:09:06.423Z,98123.03
2022-08-27T17:11:34.679Z,98131.50
2022-08-27T17:14:04.655Z,98136.59
2022-08-27T17:16:32.965Z,98134.00
2022-08-27T17:18:59.936Z,98140.91
2022-08-27T17:21:29.881Z,98150.63
2022-08-27T17:23:59.182Z,98149.19
2022-08-27T17:26:26.141Z,98147.09
2022-08-27T17:28:52.585Z,98154.69
2022-08-27T17:31:27.877Z,98153.94
2022-08-27T17:33:54.998Z,98162.50
2022-08-27T17:36:22.280Z,98155.06
2022-08-27T17:38:49.265Z,98163.22
2022-08-27T17:41:20.549Z,98164.28
2022-08-27T17:43:46.897Z,98177.28
2022-08-27T17:46:13.746Z,98175.81
2022-08-27T17:48:40.717Z,98161.78
2022-08-27T17:51:08.696Z,98178.38
2022-08-27T17:53:35.032Z,98183.66
2022-08-27T17:56:01.463Z,98178.22
2022-08-27T17:58:27.768Z,98179.78
2022-08-27T18:00:54.236Z,98181.97
2022-08-27T18:03:21.360Z,98180.91
2022-08-27T18:05:49.418Z,98183.50
2022-08-27T18:08:15.902Z,98184.63
2022-08-27T18:10:43.068Z,98184.31
2022-08-27T18:13:09.881Z,98189.41
2022-08-27T18:15:38.644Z,98187.78
2022-08-27T18:18:05.514Z,98191.66
2022-08-27T18:20:32.882Z,98195.53
2022-08-27T18:22:59.983Z,98201.69
2022-08-27T18:25:29.087Z,98208.81
2022-08-27T18:27:58.641Z,98202.25
2022-08-27T18:30:25.377Z,98207.56
2022-08-27T18:32:51.972Z,98212.06
2022-08-27T18:35:18.317Z,98213.28
2022-08-27T18:37:44.990Z,98215.50
2022-08-27T18:40:12.329Z,98213.03
2022-08-27T18:42:40.908Z,98214.16
2022-08-27T18:45:09.035Z,98212.38
2022-08-27T18:47:35.398Z,98213.09
2022-08-27T18:50:01.768Z,98211.72
2022-08-27T18:52:28.145Z,98209.34
2022-08-27T18:54:54.502Z,98212.81
2022-08-27T18:57:20.898Z,98223.19
2022-08-27T18:59:47.192Z,98218.13
2022-08-27T19:02:16.280Z,98220.41
2022-08-27T19:04:42.963Z,98217.50
2022-08-27T19:07:09.341Z,98213.09
2022-08-27T19:09:35.669Z,98224.06
2022-08-27T19:12:02.096Z,98220.03
2022-08-27T19:14:28.864Z,98224.41
2022-08-27T19:16:56.100Z,98224.47
2022-08-27T19:19:24.802Z,98227.78
2022-08-27T19:21:51.890Z,98226.97
2022-08-27T19:24:21.236Z,98240.22
2022-08-27T19:26:48.591Z,98236.09
2022-08-27T19:29:14.913Z,98238.22
2022-08-27T19:31:41.324Z,98237.16
2022-08-27T19:34:08.225Z,98238.28
2022-08-27T19:36:36.254Z,98232.41
2022-08-27T19:39:03.423Z,98235.28
2022-08-27T19:41:29.851Z,98235.72
2022-08-27T19:43:56.341Z,98233.13
2022-08-27T19:46:23.831Z,98229.09
2022-08-27T19:48:50.626Z,98231.28
2022-08-27T19:51:16.967Z,98224.66
2022-08-27T19:53:43.459Z,98230.94
2022-08-27T19:56:10.625Z,98228.72
2022-08-27T19:58:37.134Z,98229.41
2022-08-27T20:01:03.503Z,98226.81
2022-08-27T20:03:29.888Z,98228.28
2022-08-27T20:05:56.302Z,98230.94
2022-08-27T20:08:22.789Z,98235.44
2022-08-27T20:10:49.102Z,98237.16
2022-08-27T20:13:15.502Z,98242.78
2022-08-27T20:15:42.395Z,98235.06
2022-08-27T20:18:09.060Z,98239.88
2022-08-27T20:20:35.557Z,98240.22
2022-08-27T20:23:03.706Z,98239.50
2022-08-27T20:25:30.028Z,98237.66
2022-08-27T20:27:56.394Z,98236.91
2022-08-27T20:30:24.441Z,98236.19
2022-08-27T20:32:50.952Z,98236.91
2022-08-27T20:35:18.061Z,98230.66
2022-08-27T20:37:46.086Z,98246.13
2022-08-27T20:40:14.733Z,98232.50
2022-08-27T20:42:41.248Z,98242.06
2022-08-27T20:45:11.950Z,98234.34
2022-08-27T20:47:39.561Z,98228.09
2022-08-27T20:50:06.079Z,98236.19
2022-08-27T20:52:32.527Z,98233.25
2022-08-27T20:54:58.850Z,98229.91
2022-08-27T20:57:25.192Z,98233.97
2022-08-27T21:00:10.252Z,98232.50
2022-08-27T21:02:36.913Z,98236.56
2022-08-27T21:05:08.646Z,98230.66
2022-08-27T21:07:35.009Z,98225.56
2022-08-27T21:10:01.511Z,98233.31
2022-08-27T21:12:28.916Z,98226.03
2022-08-27T21:14:56.237Z,98232.31
2022-08-27T21:17:24.356Z,98234.16
2022-08-27T21:19:50.902Z,98226.81
2022-08-27T21:22:17.285Z,98224.72
2022-08-27T21:24:43.676Z,98222.25
2022-08-27T21:27:10.015Z,98228.13
2022-08-27T21:29:36.802Z,98219.00
2022-08-27T21:32:03.291Z,98219.00
2022-08-27T21:34:31.007Z,98228.19
2022-08-27T21:36:57.861Z,98222.69
2022-08-27T21:39:24.293Z,98218.03
2022-08-27T21:41:50.604Z,98224.28
2022-08-27T21:44:16.932Z,98223.63
2022-08-27T21:46:43.318Z,98223.66
2022-08-27T21:49:09.657Z,98219.69
2022-08-27T21:51:36.157Z,98222.31
2022-08-27T21:54:02.468Z,98216.41
2022-08-27T21:56:31.457Z,98220.88
2022-08-27T21:58:57.799Z,98213.53
2022-08-27T22:01:24.174Z,98217.56
2022-08-27T22:03:51.001Z,98223.44
2022-08-27T22:06:18.428Z,98217.63
2022-08-27T22:08:45.191Z,98222.78
2022-08-27T22:11:11.922Z,98225.34
2022-08-27T22:13:38.468Z,98221.31
2022-08-27T22:16:04.957Z,98222.78
2022-08-27T22:18:31.594Z,98216.59
2022-08-27T22:20:59.403Z,98219.53
2022-08-27T22:23:26.592Z,98218.53
2022-08-27T22:25:53.128Z,98217.78
2022-08-27T22:28:19.947Z,98220.03
2022-08-27T22:30:46.412Z,98222.19
2022-08-27T22:33:13.257Z,98222.72
2022-08-27T22:35:39.721Z,98216.13
2022-08-27T22:38:06.528Z,98211.81
2022-08-27T22:40:33.452Z,98217.38
2022-08-27T22:43:00.322Z,98218.88
2022-08-27T22:45:27.318Z,98215.59
2022-08-27T22:47:54.771Z,98215.97
2022-08-27T22:50:21.592Z,98210.88
2022-08-27T22:52:48.574Z,98211.25
2022-08-27T22:55:18.900Z,98214.94
2022-08-27T22:57:48.317Z,98215.75
2022-08-27T23:00:17.883Z,98221.63
2022-08-27T23:02:44.297Z,98224.94
2022-08-27T23:05:10.806Z,98218.41
2022-08-27T23:07:37.540Z,98225.38
2022-08-27T23:10:06.030Z,98228.00
2022-08-27T23:12:34.153Z,98226.91
2022-08-27T23:15:06.384Z,98222.50
2022-08-27T23:17:32.706Z,98228.38
2022-08-27T23:19:59.087Z,98223.22
2022-08-27T23:22:25.378Z,98235.38
2022-08-27T23:25:10.542Z,98234.25
2022-08-27T23:27:36.851Z,98235.38
2022-08-27T23:30:04.105Z,98237.63
2022-08-27T23:32:30.472Z,98234.69
2022-08-27T23:34:57.064Z,98241.66
2022-08-27T23:37:23.901Z,98232.88
2022-08-27T23:39:50.274Z,98235.09
2022-08-27T23:42:18.575Z,98238.41
2022-08-27T23:44:45.846Z,98241.72
2022-08-27T23:47:12.304Z,98237.28
2022-08-27T23:49:39.060Z,98240.22
2022-08-27T23:52:05.811Z,98239.16
2022-08-27T23:54:32.661Z,98242.09
2022-08-27T23:56:58.964Z,98238.41
2022-08-27T23:59:30.286Z,98235.84
